Terminal Aerodrome Forecast
Issued by NWS

Home | Current Version | Previous Version | Text Only | Print | Product List | Glossary On
Versions: 1 2 3 4 5 6 7 8 9 10 11 12 13 14 15 16 17 18
000
FTUS43 KDLH 281700
TAFBRD
TAF
KBRD 281736Z 2818/2918 29017G26KT P6SM SCT015 BKN020
      TEMPO 2820/2823 P6SM -SHRA
     FM290200 30013G22KT P6SM OVC025
     FM290600 31009KT P6SM BKN008
     FM291100 31009KT P6SM SCT010 BKN015=

USA.gov is the U.S. government's official web portal to all federal, state and local government web resources and services.